Time;durP1;ratioP1;P1;durP2;ratioP2;P2;SDS_P1;SDS_P2;PMS_P1;PMS_P2;Temp;Humidity;BMP_temperature;BMP_pressure;BME280_temperature;BME280_humidity;BME280_pressure;Samples;Min_cycle;Max_cycle;Signal;HPM_P1;HPM_P2
2023/10/03 00:01:38;;;;;;;1.50;1.00;;;19.30;98.20;;;;;;4989902;28;20490;-83
2023/10/03 00:04:07;;;;;;;1.70;1.10;;;19.20;98.20;;;;;;5000972;28;20469;-83
2023/10/03 00:06:34;;;;;;;1.50;1.00;;;19.20;98.20;;;;;;4995018;28;20545;-83
2023/10/03 00:09:01;;;;;;;1.47;0.90;;;19.20;98.20;;;;;;5014606;28;20462;-83
2023/10/03 00:11:30;;;;;;;1.50;0.90;;;19.20;98.20;;;;;;4989106;28;20487;-83
2023/10/03 00:14:07;;;;;;;1.50;1.10;;;19.20;98.20;;;;;;5006673;28;20461;-83
2023/10/03 00:16:35;;;;;;;1.50;0.93;;;19.20;98.20;;;;;;4991448;28;20486;-83
2023/10/03 00:19:02;;;;;;;1.47;0.90;;;19.20;98.20;;;;;;5005100;28;20465;-83
2023/10/03 00:21:35;;;;;;;1.50;0.90;;;19.20;98.20;;;;;;4982484;28;20496;-83
2023/10/03 00:24:03;;;;;;;1.50;1.00;;;19.30;98.20;;;;;;5009868;28;20465;-85
2023/10/03 00:26:32;;;;;;;1.50;0.90;;;19.30;98.20;;;;;;4993661;28;20478;-83
2023/10/03 00:29:00;;;;;;;1.50;0.90;;;19.40;98.20;;;;;;5012705;28;20732;-84
2023/10/03 00:31:29;;;;;;;1.50;1.00;;;19.50;98.20;;;;;;4991541;28;20472;-83
2023/10/03 00:33:56;;;;;;;1.50;1.00;;;19.50;98.20;;;;;;5001817;28;20473;-84
2023/10/03 00:36:25;;;;;;;1.93;1.73;;;19.60;98.20;;;;;;4990159;28;20484;-83
2023/10/03 00:38:52;;;;;;;1.50;0.97;;;19.60;98.20;;;;;;5008779;28;20846;-83
2023/10/03 00:41:20;;;;;;;1.60;1.30;;;19.60;98.20;;;;;;4993551;28;20481;-84
2023/10/03 00:44:01;;;;;;;1.50;0.93;;;19.60;98.20;;;;;;5013546;28;20470;-83
2023/10/03 00:46:29;;;;;;;1.50;1.00;;;19.70;98.20;;;;;;4994913;28;20475;-84
2023/10/03 00:48:57;;;;;;;1.47;0.90;;;19.70;98.20;;;;;;5004969;28;20960;-84
2023/10/03 00:51:27;;;;;;;1.50;1.00;;;19.70;98.20;;;;;;4988793;28;20856;-84
2023/10/03 00:54:06;;;;;;;1.50;0.93;;;19.70;98.20;;;;;;5007753;28;20522;-84
2023/10/03 00:56:32;;;;;;;1.50;1.00;;;19.80;98.20;;;;;;4992165;28;20482;-83
2023/10/03 00:59:01;;;;;;;1.50;1.00;;;19.80;98.20;;;;;;5013137;28;20499;-83
2023/10/03 01:01:33;;;;;;;1.50;1.00;;;19.70;98.20;;;;;;4997845;28;20509;-83
2023/10/03 01:04:01;;;;;;;1.43;0.90;;;19.80;98.20;;;;;;5012213;28;20994;-84
2023/10/03 01:06:28;;;;;;;1.47;0.93;;;19.80;98.20;;;;;;4991746;28;20480;-84
2023/10/03 01:09:00;;;;;;;1.50;0.90;;;19.80;98.20;;;;;;5010482;28;20452;-84
2023/10/03 01:11:28;;;;;;;1.47;0.90;;;19.80;98.20;;;;;;4997812;28;20559;-82
2023/10/03 01:13:57;;;;;;;1.60;1.27;;;19.80;98.20;;;;;;5014548;28;20540;-83
2023/10/03 01:16:29;;;;;;;1.50;0.90;;;19.90;98.20;;;;;;4994748;28;20546;-84
2023/10/03 01:18:59;;;;;;;1.43;0.90;;;19.90;98.20;;;;;;5004241;28;20457;-83
2023/10/03 01:21:26;;;;;;;2.27;2.07;;;19.90;98.20;;;;;;4983141;28;20472;-83
2023/10/03 01:23:57;;;;;;;1.70;1.47;;;20.00;98.20;;;;;;5002690;28;20916;-84
2023/10/03 01:26:24;;;;;;;1.43;0.90;;;20.00;98.20;;;;;;4987515;28;20540;-83
2023/10/03 01:28:51;;;;;;;1.50;1.10;;;20.00;98.20;;;;;;5004649;28;20473;-83
2023/10/03 01:31:18;;;;;;;1.43;0.90;;;20.00;98.20;;;;;;4992747;28;20473;-83
2023/10/03 01:33:46;;;;;;;1.50;1.00;;;20.00;98.20;;;;;;5013305;28;20551;-83
2023/10/03 01:36:13;;;;;;;1.47;0.90;;;20.00;98.20;;;;;;4991173;28;20480;-84
2023/10/03 01:38:42;;;;;;;1.47;1.00;;;19.90;98.20;;;;;;5015637;28;20536;-83
2023/10/03 01:41:12;;;;;;;1.50;1.00;;;20.00;98.20;;;;;;4987702;28;20571;-83
2023/10/03 01:43:43;;;;;;;1.50;0.90;;;19.90;98.20;;;;;;5003445;28;20493;-83
2023/10/03 01:46:10;;;;;;;1.47;0.90;;;20.00;98.20;;;;;;4991786;28;20486;-84
2023/10/03 01:48:37;;;;;;;1.60;1.20;;;20.00;98.20;;;;;;5020056;28;20461;-83
2023/10/03 01:51:04;;;;;;;1.50;0.90;;;19.90;98.20;;;;;;4987574;28;20458;-84
2023/10/03 01:53:31;;;;;;;1.70;1.53;;;19.90;98.20;;;;;;5004603;28;20543;-83
2023/10/03 01:55:58;;;;;;;1.50;0.90;;;20.00;98.20;;;;;;4984377;28;20465;-83
2023/10/03 01:58:26;;;;;;;1.60;1.20;;;20.00;98.20;;;;;;5007484;28;20465;-82
2023/10/03 02:00:53;;;;;;;1.50;1.00;;;20.00;98.20;;;;;;4988894;28;20495;-84
2023/10/03 02:03:22;;;;;;;1.47;0.90;;;20.00;98.20;;;;;;5023050;28;20555;-85
2023/10/03 02:05:49;;;;;;;1.50;0.90;;;20.00;98.20;;;;;;4991021;28;20959;-83
2023/10/03 02:08:16;;;;;;;1.50;0.90;;;20.00;98.20;;;;;;5024621;28;20531;-84
2023/10/03 02:10:44;;;;;;;1.47;0.90;;;20.00;98.20;;;;;;4994623;28;20457;-84
2023/10/03 02:13:14;;;;;;;1.50;0.90;;;20.00;98.20;;;;;;5007829;28;20479;-83
2023/10/03 02:15:44;;;;;;;1.60;1.20;;;20.00;98.20;;;;;;5030730;28;20463;-84
2023/10/03 02:18:12;;;;;;;1.50;1.00;;;20.00;98.20;;;;;;5049955;28;20585;-83
2023/10/03 02:20:50;;;;;;;2.00;1.77;;;20.00;98.20;;;;;;5026686;28;20518;-84
2023/10/03 02:23:28;;;;;;;1.50;0.97;;;20.00;98.20;;;;;;5009254;28;20485;-84
2023/10/03 02:28:38;;;;;;;1.50;1.10;;;19.90;98.20;;;;;;5052046;28;20621;-83
2023/10/03 02:31:08;;;;;;;1.50;0.90;;;19.90;98.20;;;;;;5012771;28;20463;-84
2023/10/03 02:33:44;;;;;;;1.50;1.33;;;19.90;98.20;;;;;;5034036;28;20475;-83
2023/10/03 02:36:11;;;;;;;1.50;1.10;;;19.90;98.20;;;;;;5016329;28;20917;-83
2023/10/03 02:38:38;;;;;;;1.50;1.00;;;19.90;98.20;;;;;;5044107;28;20490;-83
2023/10/03 02:41:12;;;;;;;1.50;1.20;;;20.00;98.20;;;;;;5017048;28;20541;-83
2023/10/03 02:43:43;;;;;;;1.80;1.40;;;20.00;98.20;;;;;;5051564;28;20482;-84
2023/10/03 02:46:12;;;;;;;1.47;0.90;;;20.00;98.20;;;;;;5009436;28;20484;-83
2023/10/03 02:48:39;;;;;;;1.47;0.90;;;20.10;98.20;;;;;;5043806;28;20471;-83
2023/10/03 02:51:19;;;;;;;1.50;0.90;;;20.10;98.20;;;;;;5020836;28;20454;-84
2023/10/03 02:53:46;;;;;;;1.50;1.10;;;20.10;98.20;;;;;;5034924;28;20553;-83
2023/10/03 02:56:14;;;;;;;1.50;0.90;;;20.10;98.20;;;;;;5020849;28;20946;-84
2023/10/03 02:58:41;;;;;;;1.50;1.10;;;20.10;98.20;;;;;;5047679;28;20478;-83
2023/10/03 03:01:09;;;;;;;1.43;0.90;;;20.20;98.20;;;;;;5013259;28;20478;-82
2023/10/03 03:03:38;;;;;;;1.50;0.90;;;20.20;98.20;;;;;;5052661;28;20479;-84
2023/10/03 03:06:11;;;;;;;1.47;0.90;;;20.20;98.20;;;;;;5015577;28;20476;-83
2023/10/03 03:08:43;;;;;;;1.47;0.90;;;20.20;98.20;;;;;;5048799;28;20479;-84
2023/10/03 03:11:11;;;;;;;1.50;1.00;;;20.20;98.20;;;;;;5018931;28;20532;-84
2023/10/03 03:13:38;;;;;;;1.50;0.90;;;20.20;98.20;;;;;;5048273;28;20487;-83
2023/10/03 03:16:06;;;;;;;1.47;0.90;;;20.20;98.20;;;;;;5013368;28;20713;-84
2023/10/03 03:18:46;;;;;;;1.50;0.90;;;20.20;98.20;;;;;;5041811;28;20467;-84
2023/10/03 03:21:15;;;;;;;4.83;1.70;;;20.20;98.20;;;;;;5018102;28;20481;-84
2023/10/03 03:23:47;;;;;;;1.47;0.90;;;20.20;98.20;;;;;;5048112;28;20488;-83
2023/10/03 03:26:21;;;;;;;1.50;0.90;;;20.20;98.20;;;;;;5015956;28;20936;-84
2023/10/03 03:28:52;;;;;;;1.47;0.90;;;20.20;98.20;;;;;;5030413;28;20471;-83
2023/10/03 03:31:22;;;;;;;1.50;0.90;;;20.20;98.20;;;;;;5021801;28;20490;-85
2023/10/03 03:33:55;;;;;;;1.50;1.30;;;20.20;98.20;;;;;;5028534;28;20537;-84
2023/10/03 03:36:23;;;;;;;1.47;0.90;;;20.20;98.20;;;;;;5015710;28;20479;-84
2023/10/03 03:38:54;;;;;;;1.47;0.90;;;20.20;98.20;;;;;;5041829;28;20477;-85
2023/10/03 03:41:22;;;;;;;1.70;1.40;;;20.30;98.20;;;;;;5019307;28;20475;-84
2023/10/03 03:43:52;;;;;;;1.50;0.90;;;20.30;98.20;;;;;;5028070;28;20464;-82
2023/10/03 03:46:19;;;;;;;1.43;0.90;;;20.30;98.20;;;;;;5022315;28;20471;-85
2023/10/03 03:48:47;;;;;;;1.50;1.10;;;20.30;98.20;;;;;;5045552;28;20877;-85
2023/10/03 03:51:16;;;;;;;1.50;1.00;;;20.30;98.20;;;;;;5011486;28;20478;-85
2023/10/03 03:53:43;;;;;;;1.50;1.00;;;20.30;98.20;;;;;;5037167;28;20490;-85
2023/10/03 03:56:13;;;;;;;1.50;0.90;;;20.30;98.20;;;;;;5014855;28;20944;-84
2023/10/03 03:58:44;;;;;;;1.40;0.90;;;20.30;98.20;;;;;;5038493;28;20459;-85
2023/10/03 04:01:18;;;;;;;1.50;1.00;;;20.20;98.20;;;;;;5016056;28;20487;-85
2023/10/03 04:03:45;;;;;;;1.50;0.90;;;20.20;98.20;;;;;;5038122;28;20496;-85
2023/10/03 04:06:13;;;;;;;1.47;0.90;;;20.20;98.20;;;;;;5016227;28;20503;-84
2023/10/03 04:08:41;;;;;;;1.50;1.20;;;20.20;98.20;;;;;;5036781;28;20465;-84
2023/10/03 04:11:08;;;;;;;1.47;0.90;;;20.20;98.20;;;;;;5014747;28;20513;-82
2023/10/03 04:13:38;;;;;;;1.50;0.90;;;20.20;98.20;;;;;;5037123;28;20511;-84
2023/10/03 04:16:06;;;;;;;1.50;1.10;;;20.10;98.20;;;;;;5017662;28;20472;-83
2023/10/03 04:18:33;;;;;;;1.40;0.90;;;20.10;98.20;;;;;;5051646;28;20542;-85
2023/10/03 04:21:04;;;;;;;1.47;0.90;;;20.20;98.20;;;;;;5013901;28;20488;-83
2023/10/03 04:23:32;;;;;;;3.30;3.00;;;20.10;98.20;;;;;;5052380;28;20878;-85
2023/10/03 04:26:11;;;;;;;1.50;0.90;;;20.10;98.20;;;;;;5013094;28;20472;-85
2023/10/03 04:28:38;;;;;;;1.43;0.90;;;20.10;98.20;;;;;;5037639;28;20465;-85
2023/10/03 04:31:06;;;;;;;1.47;0.90;;;20.10;98.20;;;;;;5011061;28;20730;-85
2023/10/03 04:33:40;;;;;;;1.50;0.90;;;20.10;98.20;;;;;;5032887;28;20490;-85
2023/10/03 04:36:10;;;;;;;1.50;1.00;;;20.10;98.20;;;;;;5016227;28;21147;-84
2023/10/03 04:38:52;;;;;;;1.43;0.90;;;20.10;98.20;;;;;;5040321;28;20460;-86
2023/10/03 04:41:20;;;;;;;1.50;0.90;;;20.10;98.20;;;;;;5017936;28;20544;-85
2023/10/03 04:43:49;;;;;;;1.47;0.90;;;20.10;98.20;;;;;;5034031;28;20484;-84
2023/10/03 04:46:16;;;;;;;1.50;1.23;;;20.20;98.20;;;;;;5014540;28;20878;-84
2023/10/03 04:48:43;;;;;;;1.50;0.90;;;20.20;98.20;;;;;;5032970;28;20563;-81
2023/10/03 04:51:14;;;;;;;1.50;0.90;;;20.20;98.20;;;;;;5008787;28;20488;-83
2023/10/03 04:53:41;;;;;;;1.50;0.93;;;20.20;98.20;;;;;;5037856;28;20494;-82
2023/10/03 04:56:08;;;;;;;1.50;0.90;;;20.20;98.20;;;;;;5012735;28;20518;-82
2023/10/03 04:58:37;;;;;;;1.50;0.90;;;20.20;98.20;;;;;;5043287;28;20459;-81
2023/10/03 05:01:04;;;;;;;1.50;0.90;;;20.30;98.20;;;;;;5001783;28;20579;-81
2023/10/03 05:03:32;;;;;;;1.47;0.90;;;20.30;98.20;;;;;;5028490;28;20484;-83
2023/10/03 05:06:01;;;;;;;1.50;1.00;;;20.30;98.20;;;;;;5004051;28;20504;-80
2023/10/03 05:08:27;;;;;;;1.40;0.90;;;20.30;98.20;;;;;;5018474;28;20468;-82
2023/10/03 05:10:54;;;;;;;1.50;0.90;;;20.30;98.20;;;;;;4982719;28;20820;-83
2023/10/03 05:13:21;;;;;;;1.43;0.90;;;20.30;98.20;;;;;;5018512;28;20485;-83
2023/10/03 05:15:51;;;;;;;1.50;0.90;;;20.30;98.20;;;;;;4978411;28;20555;-81
2023/10/03 05:18:18;;;;;;;1.47;0.90;;;20.30;98.20;;;;;;5026679;28;20507;-83
2023/10/03 05:20:45;;;;;;;1.43;0.90;;;20.30;98.20;;;;;;4994433;28;21032;-82
2023/10/03 05:23:15;;;;;;;1.43;0.90;;;20.40;98.20;;;;;;5021010;28;20483;-84
2023/10/03 05:25:43;;;;;;;1.50;0.97;;;20.40;98.20;;;;;;5013050;28;20468;-81
2023/10/03 05:28:10;;;;;;;1.50;1.00;;;20.40;98.20;;;;;;5031826;28;20503;-83
2023/10/03 05:30:41;;;;;;;1.43;0.90;;;20.50;98.20;;;;;;5013201;28;21185;-82
2023/10/03 05:33:09;;;;;;;1.50;0.90;;;20.50;98.20;;;;;;5039676;28;20498;-82
2023/10/03 05:35:36;;;;;;;1.47;0.90;;;20.60;98.20;;;;;;5020036;28;20500;-82
2023/10/03 05:38:07;;;;;;;1.47;0.90;;;20.60;98.20;;;;;;5042456;28;20474;-83
2023/10/03 05:40:34;;;;;;;1.43;0.90;;;20.70;98.20;;;;;;5021197;28;20463;-83
2023/10/03 05:43:03;;;;;;;1.60;1.10;;;20.70;98.20;;;;;;5043017;28;20536;-82
2023/10/03 05:45:30;;;;;;;2.60;2.40;;;20.70;98.20;;;;;;5022142;28;20468;-83
2023/10/03 05:47:59;;;;;;;1.50;0.90;;;20.80;98.20;;;;;;5029419;28;20608;-81
2023/10/03 05:50:35;;;;;;;1.47;0.90;;;20.80;98.20;;;;;;5025544;28;20542;-83
2023/10/03 05:53:08;;;;;;;1.47;0.90;;;20.80;98.20;;;;;;5041120;28;20880;-83
2023/10/03 05:55:35;;;;;;;1.50;1.40;;;20.90;98.20;;;;;;5013464;28;21158;-82
2023/10/03 05:58:02;;;;;;;1.50;0.90;;;20.90;98.20;;;;;;5025145;28;20566;-81
2023/10/03 06:00:29;;;;;;;1.50;0.90;;;20.90;98.20;;;;;;5015682;28;20550;-79
2023/10/03 06:02:56;;;;;;;1.50;0.90;;;20.90;98.20;;;;;;5015168;28;20474;-81
2023/10/03 06:05:23;;;;;;;1.50;1.10;;;20.90;98.20;;;;;;4995277;28;20469;-80
2023/10/03 06:07:51;;;;;;;1.50;1.07;;;21.00;98.20;;;;;;5021876;28;21449;-81
2023/10/03 06:10:18;;;;;;;1.50;1.00;;;21.00;98.20;;;;;;5017300;28;20460;-80
2023/10/03 06:12:45;;;;;;;1.50;1.23;;;21.00;98.20;;;;;;5022085;28;20487;-81
2023/10/03 06:15:13;;;;;;;1.50;0.90;;;21.00;98.20;;;;;;5015854;28;20518;-81
2023/10/03 06:17:42;;;;;;;1.43;0.90;;;21.00;98.20;;;;;;5024306;28;20558;-81
2023/10/03 06:20:13;;;;;;;1.50;0.90;;;21.10;98.20;;;;;;4992281;28;20475;-81
2023/10/03 06:22:45;;;;;;;1.47;0.90;;;21.10;98.20;;;;;;4999671;28;20475;-81
2023/10/03 06:25:13;;;;;;;1.70;1.20;;;21.10;98.20;;;;;;4990265;28;20460;-82
2023/10/03 06:27:40;;;;;;;1.50;0.90;;;21.10;98.20;;;;;;5019465;28;20486;-81
2023/10/03 06:30:08;;;;;;;1.50;0.90;;;21.10;98.20;;;;;;5020672;28;20510;-81
2023/10/03 06:32:35;;;;;;;1.50;1.00;;;21.10;98.20;;;;;;5024481;28;20503;-82
2023/10/03 06:35:02;;;;;;;1.50;0.90;;;21.10;98.20;;;;;;5029742;28;20467;-80
2023/10/03 06:37:32;;;;;;;1.50;0.90;;;21.10;98.20;;;;;;5007478;28;20486;-84
2023/10/03 06:42:44;;;;;;;1.43;0.90;;;21.10;98.20;;;;;;5020468;28;20561;-82
2023/10/03 06:45:14;;;;;;;1.47;0.90;;;21.10;98.20;;;;;;5000721;28;20480;-82
2023/10/03 06:47:43;;;;;;;1.50;0.90;;;21.00;98.20;;;;;;5018553;28;20482;-82
2023/10/03 06:50:15;;;;;;;1.50;1.10;;;21.00;98.20;;;;;;5005041;28;20464;-80
2023/10/03 06:52:42;;;;;;;1.50;0.90;;;21.00;98.20;;;;;;5017932;28;20545;-81
2023/10/03 06:55:15;;;;;;;1.47;0.90;;;21.00;98.20;;;;;;4999697;28;20974;-81
2023/10/03 06:57:42;;;;;;;1.50;0.90;;;21.00;98.20;;;;;;5017549;28;20518;-80
2023/10/03 07:00:21;;;;;;;1.50;1.00;;;21.00;98.20;;;;;;5000220;28;20465;-83
2023/10/03 07:02:49;;;;;;;1.50;0.90;;;21.00;98.20;;;;;;5021454;28;20655;-82
2023/10/03 07:05:16;;;;;;;1.47;0.90;;;21.00;98.20;;;;;;5002254;28;20516;-81
2023/10/03 07:07:42;;;;;;;1.50;0.90;;;21.00;98.20;;;;;;5041303;28;20686;-80
2023/10/03 07:10:10;;;;;;;1.50;1.10;;;21.00;98.20;;;;;;5025936;28;20467;-81
2023/10/03 07:12:39;;;;;;;1.50;0.90;;;20.90;98.20;;;;;;5039388;28;20249;-83
2023/10/03 07:15:11;;;;;;;1.47;0.90;;;20.90;98.20;;;;;;5017557;28;20464;-79
2023/10/03 07:17:40;;;;;;;1.43;0.90;;;20.90;98.20;;;;;;5031278;28;20498;-82
2023/10/03 07:20:09;;;;;;;1.43;0.90;;;20.90;98.20;;;;;;5014253;28;20461;-80
2023/10/03 07:22:36;;;;;;;1.50;0.90;;;20.90;98.20;;;;;;5018014;28;20472;-84
2023/10/03 07:25:06;;;;;;;1.47;0.90;;;20.80;98.20;;;;;;5017201;28;20524;-80
2023/10/03 07:27:34;;;;;;;1.47;0.90;;;20.80;98.20;;;;;;5022396;28;20514;-80
2023/10/03 07:30:02;;;;;;;1.50;0.90;;;20.80;98.20;;;;;;5015426;28;20491;-81
2023/10/03 07:32:30;;;;;;;1.47;0.90;;;20.80;98.20;;;;;;5009926;28;20574;-83
2023/10/03 07:34:59;;;;;;;1.43;0.90;;;20.70;98.20;;;;;;4992600;28;20487;-82
2023/10/03 07:37:26;;;;;;;1.47;0.90;;;20.70;98.20;;;;;;4991210;28;20480;-79
2023/10/03 07:39:53;;;;;;;1.47;0.90;;;20.70;98.20;;;;;;4992453;28;20568;-80
2023/10/03 07:42:23;;;;;;;1.47;0.90;;;20.70;98.20;;;;;;5003732;28;20562;-82
2023/10/03 07:44:52;;;;;;;1.50;0.90;;;20.70;98.20;;;;;;5011897;28;20518;-81
2023/10/03 07:47:20;;;;;;;1.50;1.10;;;20.80;98.20;;;;;;5024554;28;20577;-82
2023/10/03 07:49:48;;;;;;;1.47;0.90;;;20.80;98.20;;;;;;5016105;28;20555;-79
2023/10/03 07:52:18;;;;;;;1.50;1.00;;;20.80;98.20;;;;;;5011138;28;21058;-82
2023/10/03 07:54:49;;;;;;;1.50;0.90;;;20.90;98.20;;;;;;5018751;28;20464;-81
2023/10/03 07:57:16;;;;;;;1.50;0.90;;;20.90;98.20;;;;;;4998620;28;20488;-81
2023/10/03 07:59:43;;;;;;;1.43;0.90;;;20.90;98.20;;;;;;4990582;28;20476;-79
2023/10/03 08:02:11;;;;;;;1.50;0.90;;;21.00;98.20;;;;;;4988540;28;20633;-81
2023/10/03 08:04:40;;;;;;;1.47;0.90;;;21.00;98.20;;;;;;4989463;28;20552;-80
2023/10/03 08:07:08;;;;;;;1.50;0.90;;;21.00;98.20;;;;;;4990968;28;20537;-81
2023/10/03 08:09:36;;;;;;;1.47;0.90;;;21.00;98.20;;;;;;4993532;28;20533;-80
2023/10/03 08:12:11;;;;;;;1.47;0.90;;;21.10;98.20;;;;;;4993933;28;20751;-80
2023/10/03 08:14:39;;;;;;;1.43;0.90;;;21.10;98.20;;;;;;4998370;28;20480;-81
2023/10/03 08:17:06;;;;;;;1.47;0.90;;;21.20;98.20;;;;;;4987822;28;20551;-82
2023/10/03 08:19:33;;;;;;;1.43;0.90;;;21.20;98.20;;;;;;5006604;28;20469;-79
2023/10/03 08:22:00;;;;;;;1.50;0.90;;;21.30;98.20;;;;;;5004421;28;20540;-80
2023/10/03 08:24:28;;;;;;;1.47;0.90;;;21.40;98.20;;;;;;4992848;28;20469;-80
2023/10/03 08:26:59;;;;;;;1.47;0.90;;;21.40;98.20;;;;;;4989808;28;20476;-81
2023/10/03 08:29:26;;;;;;;1.47;0.90;;;21.40;98.20;;;;;;4991451;28;20465;-79
2023/10/03 08:31:57;;;;;;;1.40;0.90;;;21.40;98.20;;;;;;4983922;28;20602;-81
2023/10/03 08:34:25;;;;;;;1.50;0.90;;;21.50;98.20;;;;;;4989846;28;20523;-82
2023/10/03 08:36:54;;;;;;;1.47;1.00;;;21.50;98.20;;;;;;4986916;28;20601;-80
2023/10/03 08:39:23;;;;;;;1.50;0.90;;;21.50;98.20;;;;;;4999549;28;20942;-80
2023/10/03 08:42:00;;;;;;;1.47;0.90;;;21.50;98.20;;;;;;4989483;28;20534;-78
2023/10/03 08:44:36;;;;;;;1.43;0.90;;;21.50;98.20;;;;;;4994290;28;20547;-81
2023/10/03 08:47:10;;;;;;;1.50;0.90;;;21.40;98.20;;;;;;4985322;28;20870;-82
2023/10/03 08:49:40;;;;;;;1.50;1.00;;;21.40;98.20;;;;;;4991434;28;21052;-79
2023/10/03 08:52:09;;;;;;;1.50;0.90;;;21.40;98.20;;;;;;4995592;28;20489;-81
2023/10/03 08:54:37;;;;;;;1.47;0.90;;;21.40;98.20;;;;;;4995382;28;21039;-80
2023/10/03 08:57:09;;;;;;;1.43;0.90;;;21.40;98.20;;;;;;4987138;28;20505;-79
2023/10/03 08:59:40;;;;;;;1.47;0.90;;;21.50;98.20;;;;;;4992639;28;20477;-79
2023/10/03 09:02:11;;;;;;;1.50;0.90;;;21.50;98.20;;;;;;4986554;28;20534;-81
2023/10/03 09:04:40;;;;;;;1.50;0.90;;;21.60;98.20;;;;;;4989119;28;20468;-80
2023/10/03 09:07:09;;;;;;;1.50;0.90;;;21.60;98.20;;;;;;4983463;28;20480;-80
2023/10/03 09:09:41;;;;;;;1.50;0.90;;;21.60;98.20;;;;;;4992612;28;20480;-81
2023/10/03 09:12:12;;;;;;;1.47;0.90;;;21.60;98.20;;;;;;4988232;28;20488;-79
2023/10/03 09:14:39;;;;;;;1.50;0.90;;;21.60;98.20;;;;;;4990827;28;20517;-79
2023/10/03 09:17:06;;;;;;;1.43;0.90;;;21.60;98.20;;;;;;4994577;28;20512;-81
2023/10/03 09:19:45;;;;;;;1.40;0.90;;;21.60;98.20;;;;;;4994770;28;20458;-81
2023/10/03 09:22:15;;;;;;;1.47;0.90;;;21.60;98.20;;;;;;4991166;28;21206;-81
2023/10/03 09:24:44;;;;;;;1.50;0.90;;;21.70;98.20;;;;;;4995947;28;20465;-80
2023/10/03 09:27:17;;;;;;;1.50;0.90;;;21.70;98.20;;;;;;4989484;28;20493;-82
2023/10/03 09:29:45;;;;;;;1.47;0.90;;;21.60;98.20;;;;;;4993308;28;20835;-83
2023/10/03 09:32:14;;;;;;;7.53;3.10;;;21.70;98.20;;;;;;4998802;28;20490;-79
2023/10/03 09:34:42;;;;;;;1.43;0.90;;;21.70;98.20;;;;;;4992718;28;20473;-80
2023/10/03 09:37:09;;;;;;;1.47;0.90;;;21.80;98.20;;;;;;4995865;28;20487;-80
2023/10/03 09:39:47;;;;;;;1.50;0.90;;;21.80;98.20;;;;;;4996421;28;20465;-80
2023/10/03 09:42:17;;;;;;;1.47;0.90;;;21.80;98.20;;;;;;4989603;28;20483;-81
2023/10/03 09:44:44;;;;;;;1.50;0.90;;;21.80;98.20;;;;;;4989511;28;20493;-80
2023/10/03 09:47:13;;;;;;;1.50;0.90;;;21.70;98.20;;;;;;4993949;28;20487;-81
2023/10/03 09:49:41;;;;;;;1.50;0.90;;;21.70;98.20;;;;;;4992661;28;20545;-82
2023/10/03 09:52:09;;;;;;;1.47;0.90;;;21.70;98.20;;;;;;4996156;28;20498;-81
2023/10/03 09:54:37;;;;;;;1.47;0.87;;;21.60;98.20;;;;;;4993361;28;20461;-80
2023/10/03 09:57:16;;;;;;;1.50;0.90;;;21.60;98.20;;;;;;4986135;28;20487;-82
2023/10/03 09:59:49;;;;;;;1.43;0.90;;;21.60;98.20;;;;;;4990437;28;20543;-83
2023/10/03 10:02:16;;;;;;;1.50;0.90;;;21.70;98.20;;;;;;4984112;28;20512;-80
2023/10/03 10:04:46;;;;;;;1.50;0.90;;;21.70;98.20;;;;;;4992199;28;20490;-82
2023/10/03 10:07:29;;;;;;;1.50;1.00;;;21.80;98.20;;;;;;4985568;28;20476;-82
2023/10/03 10:10:07;;;;;;;1.50;0.90;;;21.80;98.20;;;;;;4991619;28;20475;-80
2023/10/03 10:12:37;;;;;;;1.50;0.90;;;21.80;98.20;;;;;;4991336;28;20544;-78
2023/10/03 10:15:26;;;;;;;1.50;1.00;;;21.80;98.20;;;;;;4992258;28;20470;-82
2023/10/03 10:17:55;;;;;;;1.47;0.90;;;21.80;98.20;;;;;;4988414;28;20491;-80
2023/10/03 10:20:43;;;;;;;1.43;0.90;;;21.70;98.20;;;;;;4988636;28;20479;-82
2023/10/03 10:23:15;;;;;;;1.80;1.57;;;21.70;98.20;;;;;;5010087;28;20506;-82
2023/10/03 10:25:50;;;;;;;1.43;0.90;;;21.80;98.20;;;;;;4993750;28;20477;-81
2023/10/03 10:28:21;;;;;;;1.50;0.90;;;21.70;98.20;;;;;;4993746;28;20687;-79
2023/10/03 10:31:21;;;;;;;1.43;0.90;;;21.60;98.20;;;;;;5004077;28;22152;-79
2023/10/03 10:33:49;;;;;;;1.50;1.10;;;21.50;98.20;;;;;;5014120;28;20499;-79
2023/10/03 10:36:18;;;;;;;1.50;0.90;;;21.50;98.20;;;;;;4986860;28;21135;-81
2023/10/03 10:38:55;;;;;;;1.47;0.90;;;21.50;98.20;;;;;;5012901;28;20472;-81
2023/10/03 10:41:27;;;;;;;1.50;0.90;;;21.50;98.20;;;;;;4987710;28;20560;-82
2023/10/03 10:44:27;;;;;;;1.50;1.07;;;21.50;98.20;;;;;;5010942;28;20517;-84
2023/10/03 10:47:06;;;;;;;1.47;0.93;;;21.40;98.20;;;;;;4995204;28;20966;-81
2023/10/03 10:49:55;;;;;;;1.47;0.90;;;21.30;98.20;;;;;;5001320;28;20460;-81
2023/10/03 10:52:23;;;;;;;1.50;0.90;;;21.20;98.20;;;;;;4997787;28;20566;-77
2023/10/03 10:54:50;;;;;;;1.47;0.90;;;20.90;98.20;;;;;;4990257;28;20579;-78
2023/10/03 10:57:18;;;;;;;1.50;0.90;;;20.60;98.20;;;;;;5007408;28;20491;-77
2023/10/03 10:59:46;;;;;;;1.50;1.00;;;20.40;98.20;;;;;;5015033;28;20471;-77
2023/10/03 11:02:19;;;;;;;1.50;0.90;;;20.20;98.20;;;;;;5019662;28;20496;-78
2023/10/03 11:04:53;;;;;;;1.50;0.90;;;20.10;98.20;;;;;;5010894;28;20921;-77
2023/10/03 11:07:23;;;;;;;1.47;0.90;;;20.00;98.20;;;;;;5020512;28;20481;-80
2023/10/03 11:09:52;;;;;;;1.50;0.90;;;19.80;98.20;;;;;;5011657;28;20472;-79
2023/10/03 11:12:29;;;;;;;1.50;0.90;;;19.70;98.20;;;;;;5019711;28;20478;-78
2023/10/03 11:14:57;;;;;;;1.50;1.00;;;19.60;98.20;;;;;;5010598;28;20463;-80
2023/10/03 11:17:26;;;;;;;1.50;0.90;;;19.60;98.20;;;;;;5025067;28;20481;-79
2023/10/03 11:19:55;;;;;;;1.50;1.10;;;19.60;98.20;;;;;;5011683;28;20488;-78
2023/10/03 11:22:23;;;;;;;1.47;0.90;;;19.70;98.20;;;;;;5022939;28;20483;-79
2023/10/03 11:24:51;;;;;;;1.47;0.90;;;19.70;98.20;;;;;;5012888;28;20492;-79
2023/10/03 11:28:16;;;;;;;1.50;0.90;;;19.70;98.20;;;;;;5022208;28;20493;-79
2023/10/03 11:30:43;;;;;;;1.50;0.90;;;19.70;98.20;;;;;;5004323;28;20474;-79
2023/10/03 11:33:15;;;;;;;1.50;0.90;;;19.80;98.20;;;;;;5034882;28;20475;-79
2023/10/03 11:35:53;;;;;;;1.50;0.90;;;19.90;98.20;;;;;;5009179;28;20874;-79
2023/10/03 11:38:24;;;;;;;1.47;0.90;;;19.90;98.20;;;;;;4998280;28;20483;-78
2023/10/03 11:40:51;;;;;;;1.50;0.90;;;20.00;98.20;;;;;;5002007;28;20887;-79
2023/10/03 11:43:44;;;;;;;1.50;0.90;;;19.90;98.20;;;;;;5049664;28;20483;-81
2023/10/03 11:46:11;;;;;;;1.50;0.90;;;19.90;98.20;;;;;;4995192;28;21460;-81
2023/10/03 11:48:45;;;;;;;1.90;1.23;;;19.90;98.20;;;;;;5000639;28;20531;-81
2023/10/03 11:51:13;;;;;;;1.50;1.10;;;19.80;98.20;;;;;;4982739;28;20552;-80
2023/10/03 11:53:40;;;;;;;1.47;0.93;;;19.80;98.20;;;;;;5002822;28;20606;-79
2023/10/03 11:56:17;;;;;;;1.50;0.90;;;19.70;98.20;;;;;;4983242;28;20504;-78
2023/10/03 11:58:44;;;;;;;1.50;0.90;;;19.60;98.20;;;;;;5009265;28;20492;-78
2023/10/03 12:01:26;;;;;;;1.47;0.90;;;19.50;98.20;;;;;;4975798;28;20476;-79
2023/10/03 12:03:57;;;;;;;1.47;0.90;;;19.50;98.20;;;;;;4993686;28;20845;-78
2023/10/03 12:06:37;;;;;;;1.50;0.90;;;19.40;98.20;;;;;;4977237;28;21148;-79
2023/10/03 12:09:09;;;;;;;1.47;0.97;;;19.30;98.20;;;;;;4993542;28;20466;-79
2023/10/03 12:11:42;;;;;;;1.50;0.90;;;19.30;98.20;;;;;;4983551;28;20487;-80
2023/10/03 12:14:13;;;;;;;1.50;0.90;;;19.20;98.20;;;;;;5002822;28;21174;-79
2023/10/03 12:16:51;;;;;;;1.47;0.90;;;19.20;98.20;;;;;;4987556;28;20483;-81
2023/10/03 12:19:43;;;;;;;1.50;0.90;;;19.10;98.20;;;;;;4995655;28;20461;-81
2023/10/03 12:22:11;;;;;;;1.50;0.90;;;19.00;98.20;;;;;;4981855;28;20519;-79
2023/10/03 12:24:38;;;;;;;1.47;1.00;;;19.00;98.20;;;;;;4983849;28;20846;-81
2023/10/03 12:27:15;;;;;;;1.50;0.90;;;19.00;98.20;;;;;;4985036;28;20529;-81
2023/10/03 12:29:43;;;;;;;1.47;0.90;;;18.90;98.20;;;;;;4989345;28;20483;-81
2023/10/03 12:32:10;;;;;;;1.47;0.90;;;18.80;98.20;;;;;;4989205;28;20483;-79
2023/10/03 12:34:39;;;;;;;1.50;1.00;;;18.80;98.20;;;;;;4986296;28;20464;-80
2023/10/03 12:37:30;;;;;;;1.40;0.90;;;18.80;98.20;;;;;;4983919;28;20484;-80
2023/10/03 12:40:04;;;;;;;1.47;0.90;;;18.70;98.20;;;;;;4982259;28;20482;-82
2023/10/03 12:42:32;;;;;;;1.50;0.90;;;18.70;98.20;;;;;;4998997;28;20487;-79
2023/10/03 12:45:03;;;;;;;1.50;0.97;;;18.60;98.20;;;;;;4985507;28;20512;-81
2023/10/03 12:47:30;;;;;;;1.47;0.90;;;18.60;98.20;;;;;;4991008;28;20476;-81
2023/10/03 12:49:59;;;;;;;1.50;0.90;;;18.50;98.20;;;;;;4983691;28;20480;-80
2023/10/03 12:52:28;;;;;;;1.47;0.90;;;18.50;98.20;;;;;;4985797;28;20532;-80
2023/10/03 12:54:58;;;;;;;1.50;0.90;;;18.40;98.20;;;;;;4983356;28;20472;-79
2023/10/03 12:57:26;;;;;;;1.50;0.90;;;18.30;98.20;;;;;;4992699;28;21132;-79
2023/10/03 12:59:53;;;;;;;1.50;0.90;;;18.20;98.20;;;;;;4988701;28;20465;-80
2023/10/03 13:02:21;;;;;;;1.50;1.00;;;18.10;98.20;;;;;;5001668;28;20485;-80
2023/10/03 13:04:49;;;;;;;1.50;1.00;;;18.00;98.20;;;;;;4988608;28;20495;-80
2023/10/03 13:07:20;;;;;;;1.50;1.00;;;18.10;98.20;;;;;;4991942;28;20484;-80
2023/10/03 13:09:48;;;;;;;1.50;0.90;;;18.20;98.20;;;;;;4990184;28;20468;-82